ADDS METAR Data INFO
IDs: Format: Raw Decoded Include TAF

Data at: 2217 UTC 24 Jun 2018

KMUT 242215Z AUTO 12009G14KT 10SM CLR 29/18 A2994 RMK AO2
KMUT 242155Z AUTO 12011KT 10SM CLR 29/18 A2994 RMK AO2
KMUT 242135Z AUTO 13009KT 10SM CLR 30/18 A2994 RMK AO2
KMUT 242115Z AUTO 15007G15KT 10SM FEW055 28/18 A2994 RMK AO2
KMUT 242055Z AUTO 13007G13KT 10SM FEW040 SCT055 29/18 A2994 RMK AO2
KMUT 242035Z AUTO 13007KT 10SM FEW042 FEW060 29/18 A2994 RMK AO2
KMUT 242015Z AUTO 12007G14KT 10SM CLR 29/18 A2996 RMK AO2
KMUT 241955Z AUTO 12010KT 10SM FEW041 FEW050 29/18 A2997 RMK AO2
KMUT 241935Z AUTO 13008KT 10SM SCT041 SCT050 28/18 A2997 RMK AO2
KMUT 241915Z AUTO 14008KT 10SM FEW046 SCT050 28/18 A2997 RMK AO2
KMUT 241855Z AUTO VRB06KT 10SM FEW038 FEW050 28/18 A2997 RMK AO2
KMUT 241835Z AUTO VRB05KT 10SM SCT039 SCT050 28/18 A2996 RMK AO2
KMUT 241815Z AUTO 10009KT 10SM FEW039 28/18 A2997 RMK AO2
KMUT 241755Z AUTO 12009KT 10SM FEW037 28/18 A2997 RMK AO2
KMUT 241735Z AUTO 12005G11KT 10SM FEW035 28/17 A2997 RMK AO2
KMUT 241715Z AUTO 12006KT 10SM FEW034 27/18 A2997 RMK AO2
KMUT 241655Z AUTO 14006KT 10SM CLR 27/17 A2996 RMK AO2
KMUT 241635Z AUTO VRB04KT 10SM CLR 27/17 A2996 RMK AO2
KMUT 241615Z AUTO 15007KT 10SM CLR 27/17 A2995 RMK AO2
KMUT 241555Z AUTO 14006KT 10SM CLR 26/17 A2994 RMK AO2
KMUT 241535Z AUTO 14006KT 10SM CLR 26/17 A2993 RMK AO2
KMUT 241515Z AUTO 11005KT 10SM CLR 25/18 A2993 RMK AO2
KMUT 241455Z AUTO 13004KT 10SM CLR 25/18 A2993 RMK AO2
KMUT 241435Z AUTO 12004KT 10SM CLR 24/18 A2993 RMK AO2
KMUT 241415Z AUTO 15004KT 10SM CLR 23/18 A2994 RMK AO2
KMUT 241355Z AUTO 16005KT 10SM CLR 23/19 A2994 RMK AO2
KMUT 241335Z AUTO 00000KT 10SM FEW006 21/19 A2994 RMK AO2
KMUT 241315Z AUTO 00000KT 9SM SCT002 SCT006 20/20 A2994 RMK AO2
KMUT 241255Z AUTO 00000KT 1 1/2SM BR OVC002 19/19 A2993 RMK AO2
KMUT 241235Z AUTO 00000KT 1/4SM FG OVC002 19/18 A2992 RMK AO2
KMUT 241215Z AUTO 00000KT M1/4SM FG OVC002 18/18 A2992 RMK AO2
KMUT 241155Z AUTO 00000KT M1/4SM FG BKN001 18/17 A2991 RMK AO2
KMUT 241135Z AUTO 00000KT M1/4SM FG BKN002 17/17 A2989 RMK AO2
KMUT 241115Z AUTO 00000KT M1/4SM FG OVC002 17/16 A2989 RMK AO2
KMUT 241055Z AUTO 00000KT M1/4SM FG OVC002 15/15 A2989 RMK AO2
KMUT 241035Z AUTO 00000KT M1/4SM FG OVC002 16/15 A2987 RMK AO2
KMUT 241015Z AUTO 00000KT M1/4SM FG BKN001 15/15 A2987 RMK AO2
KMUT 240955Z AUTO 00000KT 1/2SM BR VV005 15/15 A2987 RMK AO2
KMUT 240935Z AUTO 00000KT 3/4SM BR BKN001 16/15 A2988 RMK AO2 VIS 1/4V3
KMUT 240915Z AUTO 00000KT 1/4SM FG BKN001 16/15 A2987 RMK AO2
KMUT 240855Z AUTO 00000KT 4SM BR CLR 16/15 A2987 RMK AO2
KMUT 240835Z AUTO 00000KT 5SM BR CLR 16/15 A2986 RMK AO2
KMUT 240815Z AUTO 00000KT 8SM 16/15 A2985 RMK AO2
KMUT 240755Z AUTO 00000KT 10SM 16/15 A2985 RMK AO2
KMUT 240735Z AUTO 00000KT 7SM CLR 17/16 A2984 RMK AO2
KMUT 240715Z AUTO 00000KT 7SM CLR 17/16 A2984 RMK AO2
KMUT 240655Z AUTO 00000KT 10SM 17/16 A2985 RMK AO2
KMUT 240635Z AUTO 00000KT 10SM CLR 17/16 A2985 RMK AO2
KMUT 240615Z AUTO 00000KT 10SM CLR 18/17 A2984 RMK AO2
KMUT 240555Z AUTO 12003KT 9SM CLR 18/17 A2985 RMK AO2
KMUT 240535Z AUTO 00000KT 10SM CLR 18/17 A2985 RMK AO2
KMUT 240515Z AUTO 00000KT 10SM CLR 18/17 A2985 RMK AO2
KMUT 240455Z AUTO 00000KT 10SM CLR 19/17 A2985 RMK AO2
KMUT 240435Z AUTO 00000KT 10SM CLR 20/17 A2985 RMK AO2
KMUT 240415Z AUTO 00000KT 10SM CLR 20/18 A2984 RMK AO2
KMUT 240355Z AUTO 20003KT 10SM CLR 20/18 A2984 RMK AO2
KMUT 240335Z AUTO 00000KT 10SM CLR 21/18 A2983 RMK AO2
KMUT 240315Z AUTO 22003KT 10SM CLR 20/18 A2983 RMK AO2
KMUT 240255Z AUTO 18004KT 10SM FEW080 FEW100 20/19 A2982 RMK AO2
KMUT 240235Z AUTO 25003KT 10SM 21/19 A2982 RMK AO2
KMUT 240215Z AUTO 00000KT 10SM BKN080 22/20 A2981 RMK AO2
KMUT 240155Z AUTO 00000KT 10SM OVC080 23/19 A2981 RMK AO2
KMUT 240135Z AUTO 00000KT 10SM SCT070 OVC080 23/19 A2981 RMK AO2
KMUT 240115Z AUTO 00000KT 10SM BKN070 OVC080 24/17 A2980 RMK AO2
KMUT 240055Z AUTO 00000KT 10SM OVC080 24/17 A2980 RMK AO2
KMUT 240035Z AUTO 00000KT 10SM BKN070 OVC080 24/18 A2979 RMK AO2
KMUT 240015Z AUTO 00000KT 10SM OVC070 24/18 A2979 RMK AO2
KMUT 232355Z AUTO 00000KT 10SM BKN075 25/17 A2979 RMK AO2
KMUT 232335Z AUTO 00000KT 10SM CLR 25/17 A2978 RMK AO2
KMUT 232315Z AUTO 00000KT 10SM BKN110 25/17 A2978 RMK AO2
KMUT 232255Z AUTO 01003KT 10SM OVC110 25/17 A2978 RMK AO2
KMUT 232235Z AUTO 00000KT 10SM OVC110 25/17 A2978 RMK AO2
KMUT 232215Z AUTO 00000KT 10SM SCT080 OVC110 25/17 A2978 RMK AO2
KMUT 232155Z AUTO 02004KT 10SM OVC080 24/18 A2979 RMK AO2
KMUT 232135Z AUTO 01005KT 10SM OVC080 24/18 A2979 RMK AO2
KMUT 232115Z AUTO 34004KT 10SM FEW050 OVC075 25/17 A2979 RMK AO2
KMUT 232055Z AUTO VRB04KT 10SM FEW039 BKN070 25/17 A2979 RMK AO2
KMUT 232035Z AUTO 32003KT 10SM BKN080 25/16 A2978 RMK AO2
KMUT 232015Z AUTO 29003KT 10SM OVC080 26/17 A2978 RMK AO2
KMUT 231955Z AUTO 27005G10KT 10SM BKN075 25/16 A2979 RMK AO2
KMUT 231935Z AUTO VRB06KT 10SM BKN070 BKN080 26/17 A2978 RMK AO2
KMUT 231915Z AUTO 24007KT 10SM OVC070 24/17 A2979 RMK AO2
KMUT 231855Z AUTO 25004KT 10SM SCT033 SCT050 OVC060 24/17 A2979 RMK AO2
KMUT 231835Z AUTO 22007KT 10SM BKN033 OVC043 24/17 A2979 RMK AO2
KMUT 231815Z AUTO 00000KT 10SM BKN030 OVC042 24/16 A2979 RMK AO2
KMUT 231755Z AUTO VRB03KT 10SM BKN030 24/16 A2979 RMK AO2
KMUT 231735Z AUTO 00000KT 10SM FEW032 25/16 A2979 RMK AO2
KMUT 231715Z AUTO 00000KT 10SM SCT031 SCT041 24/16 A2979 RMK AO2
KMUT 231655Z AUTO 00000KT 10SM BKN031 BKN040 OVC075 24/16 A2979 RMK AO2
KMUT 231635Z AUTO 33003KT 10SM SCT028 SCT039 BKN075 23/16 A2979 RMK AO2
KMUT 231615Z AUTO VRB04KT 10SM SCT028 SCT070 24/16 A2979 RMK AO2
KMUT 231555Z AUTO VRB04KT 10SM FEW026 FEW055 BKN070 23/16 A2979 RMK AO2
KMUT 231535Z AUTO VRB04KT 10SM BKN070 24/16 A2979 RMK AO2
KMUT 231515Z AUTO 31005KT 10SM CLR 23/17 A2979 RMK AO2
KMUT 231455Z AUTO 36004KT 10SM CLR 22/16 A2978 RMK AO2
KMUT 231435Z AUTO 00000KT 10SM CLR 22/16 A2979 RMK AO2
KMUT 231415Z AUTO VRB04KT 10SM CLR 21/16 A2978 RMK AO2
KMUT 231355Z AUTO 05007KT 10SM CLR 21/16 A2977 RMK AO2
KMUT 231335Z AUTO 00000KT 10SM FEW025 SCT055 20/16 A2978 RMK AO2
KMUT 231315Z AUTO 03004KT 10SM BKN026 OVC055 20/15 A2979 RMK AO2
KMUT 231255Z AUTO 26003KT 10SM BKN026 OVC034 19/15 A2980 RMK AO2
KMUT 231235Z AUTO 00000KT 10SM SCT028 BKN034 OVC055 19/16 A2979 RMK AO2
KMUT 231215Z AUTO 00000KT 10SM BKN029 BKN038 OVC055 19/16 A2978 RMK AO2
KMUT 231155Z AUTO 00000KT 10SM OVC029 18/16 A2977 RMK AO2
KMUT 231135Z AUTO 00000KT 10SM OVC028 18/16 A2978 RMK AO2
KMUT 231115Z AUTO 00000KT 10SM BKN027 OVC050 18/16 A2977 RMK AO2
KMUT 231055Z AUTO 00000KT 10SM BKN028 OVC050 18/16 A2977 RMK AO2
KMUT 231035Z AUTO 34003KT 10SM OVC026 18/16 A2976 RMK AO2